createdAt,value
2023-02-11T00:00:19.704Z,32.80
2023-02-11T00:02:47.905Z,32.33
2023-02-11T00:05:14.630Z,30.95
2023-02-11T00:07:40.966Z,31.38
2023-02-11T00:10:08.549Z,31.27
2023-02-11T00:12:36.312Z,31.35
2023-02-11T00:15:03.654Z,33.88
2023-02-11T00:17:30.022Z,32.35
2023-02-11T00:19:56.443Z,31.92
2023-02-11T00:22:22.911Z,32.60
2023-02-11T00:24:49.349Z,31.95
2023-02-11T00:27:15.827Z,33.30
2023-02-11T00:29:42.232Z,32.65
2023-02-11T00:32:10.654Z,32.13
2023-02-11T00:34:38.012Z,32.03
2023-02-11T00:37:05.051Z,31.80
2023-02-11T00:39:31.645Z,31.58
2023-02-11T00:41:58.712Z,32.00
2023-02-11T00:44:25.160Z,31.00
2023-02-11T00:46:51.513Z,32.78
2023-02-11T00:49:17.880Z,31.98
2023-02-11T00:51:44.241Z,30.67
2023-02-11T00:54:10.644Z,31.00
2023-02-11T00:56:37.331Z,30.48
2023-02-11T00:59:03.720Z,31.80
2023-02-11T01:01:30.194Z,31.33
2023-02-11T01:03:56.648Z,31.38
2023-02-11T01:06:23.473Z,30.38
2023-02-11T01:08:49.934Z,30.17
2023-02-11T01:11:19.229Z,29.75
2023-02-11T01:13:46.941Z,30.17
2023-02-11T01:16:13.941Z,31.42
2023-02-11T01:18:41.894Z,30.90
2023-02-11T01:21:08.230Z,29.85
2023-02-11T01:23:34.654Z,29.83
2023-02-11T01:26:01.017Z,29.38
2023-02-11T01:28:29.486Z,29.08
2023-02-11T01:30:56.483Z,28.85
2023-02-11T01:33:23.420Z,29.77
2023-02-11T01:35:50.620Z,28.98
2023-02-11T01:38:25.935Z,28.73
2023-02-11T01:41:01.148Z,28.73
2023-02-11T01:43:31.019Z,28.80
2023-02-11T01:46:02.201Z,28.80
2023-02-11T01:48:39.075Z,27.33
2023-02-11T01:51:14.356Z,28.25
2023-02-11T01:54:00.335Z,27.50
2023-02-11T01:56:47.202Z,26.25
2023-02-11T01:59:24.330Z,27.15
2023-02-11T02:01:56.504Z,26.40
2023-02-11T02:04:27.239Z,28.75
2023-02-11T02:06:57.777Z,26.30
2023-02-11T02:09:28.748Z,27.10
2023-02-11T02:11:55.199Z,26.52
2023-02-11T02:14:21.641Z,26.58
2023-02-11T02:16:48.290Z,25.83
2023-02-11T02:19:32.540Z,26.67
2023-02-11T02:22:47.701Z,26.25
2023-02-11T02:25:43.174Z,24.30
2023-02-11T02:28:24.844Z,24.80
2023-02-11T02:31:07.526Z,25.65
2023-02-11T02:33:44.426Z,24.10
2023-02-11T02:36:16.488Z,24.20
2023-02-11T02:39:07.572Z,24.40
2023-02-11T02:41:35.769Z,24.02
2023-02-11T02:44:02.544Z,24.17
2023-02-11T02:46:34.077Z,24.58
2023-02-11T02:49:00.901Z,24.90
2023-02-11T02:52:03.006Z,24.98
2023-02-11T02:54:56.055Z,21.88
2023-02-11T02:57:47.232Z,22.02
2023-02-11T03:00:51.194Z,22.30
2023-02-11T03:03:38.263Z,21.95
2023-02-11T03:06:17.914Z,22.08
2023-02-11T03:08:50.275Z,22.52
2023-02-11T03:11:19.322Z,20.90
2023-02-11T03:13:48.392Z,20.92
2023-02-11T03:16:25.556Z,21.48
2023-02-11T03:19:09.710Z,20.05
2023-02-11T03:21:38.721Z,20.02
2023-02-11T03:24:16.253Z,19.10
2023-02-11T03:26:51.340Z,19.52
2023-02-11T03:29:43.513Z,18.58
2023-02-11T03:32:22.116Z,17.75
2023-02-11T03:35:27.134Z,19.42
2023-02-11T03:38:07.231Z,18.35
2023-02-11T03:40:38.121Z,18.85
2023-02-11T03:43:13.105Z,17.60
2023-02-11T03:45:40.642Z,18.63
2023-02-11T03:48:14.634Z,18.70
2023-02-11T03:50:41.792Z,17.08
2023-02-11T03:53:09.762Z,17.83
2023-02-11T03:55:39.700Z,17.90
2023-02-11T03:58:07.068Z,17.67
2023-02-11T04:00:36.634Z,17.63
2023-02-11T04:03:04.432Z,17.92
2023-02-11T04:05:31.112Z,17.95
2023-02-11T04:07:57.555Z,17.80
2023-02-11T04:10:23.910Z,18.08
2023-02-11T04:12:50.389Z,16.88
2023-02-11T04:15:16.843Z,18.52
2023-02-11T04:17:43.192Z,17.30
2023-02-11T04:20:10.555Z,16.90
2023-02-11T04:22:37.453Z,17.33
2023-02-11T04:25:05.600Z,17.40
2023-02-11T04:27:32.393Z,17.05
2023-02-11T04:29:58.750Z,17.33
2023-02-11T04:32:25.123Z,17.83
2023-02-11T04:34:51.981Z,17.42
2023-02-11T04:37:18.311Z,17.45
2023-02-11T04:39:44.629Z,18.13
2023-02-11T04:42:11.118Z,17.20
2023-02-11T04:44:37.497Z,17.10
2023-02-11T04:47:04.000Z,16.40
2023-02-11T04:49:30.714Z,17.48
2023-02-11T04:51:57.156Z,17.77
2023-02-11T04:54:23.545Z,17.48
2023-02-11T04:56:51.109Z,17.92
2023-02-11T04:59:17.480Z,17.92
2023-02-11T05:01:43.864Z,17.30
2023-02-11T05:04:10.327Z,17.23
2023-02-11T05:06:39.221Z,18.00
2023-02-11T05:09:05.553Z,17.52
2023-02-11T05:11:31.998Z,18.10
2023-02-11T05:13:58.485Z,17.88
2023-02-11T05:16:24.831Z,16.95
2023-02-11T05:18:52.618Z,17.70
2023-02-11T05:21:19.397Z,17.65
2023-02-11T05:23:45.959Z,17.35
2023-02-11T05:26:13.275Z,18.10
2023-02-11T05:28:41.683Z,18.23
2023-02-11T05:31:08.766Z,16.65
2023-02-11T05:33:35.517Z,16.70
2023-02-11T05:36:05.178Z,16.02
2023-02-11T05:38:31.625Z,17.15
2023-02-11T05:40:58.273Z,16.92
2023-02-11T05:43:24.899Z,16.48
2023-02-11T05:45:51.784Z,16.55
2023-02-11T05:48:18.364Z,16.83
2023-02-11T05:50:44.789Z,17.67
2023-02-11T05:53:11.711Z,16.23
2023-02-11T05:55:38.519Z,16.88
2023-02-11T05:58:05.440Z,16.88
2023-02-11T06:00:31.961Z,16.67
2023-02-11T06:02:58.348Z,16.67
2023-02-11T06:05:25.402Z,17.77
2023-02-11T06:07:52.134Z,17.30
2023-02-11T06:10:18.638Z,17.17
2023-02-11T06:12:45.059Z,16.73
2023-02-11T06:15:11.776Z,17.13
2023-02-11T06:17:38.078Z,16.90
2023-02-11T06:20:07.184Z,16.35
2023-02-11T06:22:34.929Z,17.02
2023-02-11T06:25:02.406Z,16.92
2023-02-11T06:27:29.703Z,17.63
2023-02-11T06:29:56.294Z,17.42
2023-02-11T06:32:42.361Z,16.98
2023-02-11T06:37:38.502Z,16.10
2023-02-11T06:40:05.291Z,16.83
2023-02-11T06:42:31.726Z,17.27
2023-02-11T06:44:58.128Z,17.08
2023-02-11T06:47:24.475Z,17.88
2023-02-11T06:49:50.808Z,17.13
2023-02-11T06:52:17.148Z,16.17
2023-02-11T06:54:43.480Z,17.67
2023-02-11T06:57:09.869Z,18.13
2023-02-11T06:59:36.203Z,17.77
2023-02-11T07:02:02.621Z,18.23
2023-02-11T07:04:29.069Z,17.63
2023-02-11T07:06:55.403Z,18.30
2023-02-11T07:09:21.701Z,18.38
2023-02-11T07:11:48.129Z,17.98
2023-02-11T07:14:14.490Z,18.60
2023-02-11T07:16:40.984Z,17.55
2023-02-11T07:19:07.545Z,18.50
2023-02-11T07:21:34.094Z,19.42
2023-02-11T07:24:00.529Z,18.88
2023-02-11T07:26:27.081Z,18.88
2023-02-11T07:28:53.500Z,19.15
2023-02-11T07:31:28.024Z,19.17
2023-02-11T07:33:56.705Z,20.17
2023-02-11T07:36:23.597Z,19.55
2023-02-11T07:38:50.105Z,19.73
2023-02-11T07:41:19.618Z,20.27
2023-02-11T07:43:46.715Z,19.65
2023-02-11T07:46:20.191Z,20.90
2023-02-11T07:48:46.977Z,21.38
2023-02-11T07:51:17.310Z,21.50
2023-02-11T07:53:44.578Z,21.52
2023-02-11T07:56:13.016Z,21.35
2023-02-11T07:58:42.118Z,20.65
2023-02-11T08:01:12.101Z,21.20
2023-02-11T08:03:39.997Z,22.70
2023-02-11T08:06:09.200Z,23.35
2023-02-11T08:08:36.793Z,22.50
2023-02-11T08:11:11.996Z,22.00
2023-02-11T08:13:38.749Z,23.90
2023-02-11T08:16:06.082Z,23.65
2023-02-11T08:18:33.859Z,23.17
2023-02-11T08:21:07.690Z,23.00
2023-02-11T08:23:36.568Z,22.20
2023-02-11T08:26:04.499Z,23.40
2023-02-11T08:28:31.077Z,23.00
2023-02-11T08:30:58.015Z,23.38
2023-02-11T08:33:24.636Z,23.60
2023-02-11T08:35:51.084Z,23.27
2023-02-11T08:38:17.519Z,25.38
2023-02-11T08:40:43.932Z,24.02
2023-02-11T08:43:10.401Z,24.73
2023-02-11T08:45:37.375Z,24.17
2023-02-11T08:48:03.898Z,23.35
2023-02-11T08:50:30.383Z,24.38
2023-02-11T08:52:56.831Z,24.63
2023-02-11T08:55:23.276Z,23.05
2023-02-11T08:57:49.708Z,23.25
2023-02-11T09:00:16.716Z,24.73
2023-02-11T09:02:43.216Z,23.98
2023-02-11T09:05:09.810Z,24.27
2023-02-11T09:07:36.241Z,24.38
2023-02-11T09:10:02.588Z,25.30
2023-02-11T09:12:28.920Z,24.85
2023-02-11T09:14:55.280Z,24.08
2023-02-11T09:17:21.681Z,24.23
2023-02-11T09:19:48.096Z,24.38
2023-02-11T09:22:14.544Z,24.15
2023-02-11T09:24:40.975Z,24.25
2023-02-11T09:27:07.406Z,23.95
2023-02-11T09:29:33.845Z,25.00
2023-02-11T09:32:00.371Z,24.20
2023-02-11T09:34:26.927Z,26.25
2023-02-11T09:36:53.295Z,24.17
2023-02-11T09:39:20.608Z,27.58
2023-02-11T09:42:03.728Z,25.30
2023-02-11T09:44:34.060Z,25.35
2023-02-11T09:47:07.326Z,24.70
2023-02-11T09:49:47.408Z,24.85
2023-02-11T09:52:32.653Z,25.25
2023-02-11T09:55:02.414Z,24.25
2023-02-11T09:57:34.037Z,26.20
2023-02-11T10:00:02.316Z,25.33
2023-02-11T10:02:55.744Z,24.00
2023-02-11T10:05:49.746Z,25.65
2023-02-11T10:08:21.150Z,23.95
2023-02-11T10:11:22.605Z,25.05
2023-02-11T10:14:08.185Z,24.70
2023-02-11T10:16:57.292Z,24.67
2023-02-11T10:19:29.505Z,25.30
2023-02-11T10:22:20.331Z,24.67
2023-02-11T10:24:58.397Z,24.10
2023-02-11T10:27:32.519Z,24.35
2023-02-11T10:30:21.183Z,25.02
2023-02-11T10:32:57.626Z,24.58
2023-02-11T10:35:24.253Z,23.73
2023-02-11T10:37:50.797Z,24.65
2023-02-11T10:40:21.236Z,24.77
2023-02-11T10:42:55.571Z,24.58
2023-02-11T10:45:37.760Z,24.88
2023-02-11T10:48:08.790Z,24.23
2023-02-11T10:50:36.855Z,25.88
2023-02-11T10:53:20.875Z,24.92
2023-02-11T10:55:57.181Z,24.77
2023-02-11T10:58:31.054Z,24.60
2023-02-11T11:00:59.828Z,25.70
2023-02-11T11:03:31.421Z,25.70
2023-02-11T11:06:09.445Z,24.23
2023-02-11T11:08:43.787Z,24.65
2023-02-11T11:11:13.350Z,25.55
2023-02-11T11:13:43.349Z,25.85
2023-02-11T11:16:12.767Z,24.92
2023-02-11T11:18:44.463Z,24.73
2023-02-11T11:21:30.291Z,24.60
2023-02-11T11:24:02.381Z,25.95
2023-02-11T11:26:41.278Z,26.35
2023-02-11T11:29:13.567Z,24.75
2023-02-11T11:31:53.962Z,24.92
2023-02-11T11:34:29.901Z,25.75
2023-02-11T11:39:25.920Z,24.50
2023-02-11T11:42:05.479Z,25.27
2023-02-11T11:44:34.038Z,25.75
2023-02-11T11:47:13.593Z,25.35
2023-02-11T11:50:14.115Z,26.15
2023-02-11T11:52:54.683Z,24.92
2023-02-11T11:55:31.949Z,25.20
2023-02-11T11:57:58.509Z,25.63
2023-02-11T12:00:34.974Z,26.80
2023-02-11T12:03:29.963Z,26.63
2023-02-11T12:06:15.085Z,26.83
2023-02-11T12:09:07.705Z,25.42
2023-02-11T12:12:02.267Z,25.65
2023-02-11T12:14:35.016Z,26.80
2023-02-11T12:17:26.562Z,24.83
2023-02-11T12:20:19.346Z,25.90
2023-02-11T12:23:12.299Z,26.27
2023-02-11T12:26:03.309Z,25.75
2023-02-11T12:28:51.637Z,23.77
2023-02-11T12:31:21.163Z,26.10
2023-02-11T12:34:30.483Z,26.20
2023-02-11T12:37:14.735Z,25.52
2023-02-11T12:39:51.109Z,24.17
2023-02-11T12:43:04.348Z,25.08
2023-02-11T12:45:58.025Z,23.75
2023-02-11T12:49:15.570Z,24.63
2023-02-11T12:51:59.082Z,25.00
2023-02-11T12:54:59.385Z,26.02
2023-02-11T12:57:30.717Z,24.95
2023-02-11T13:00:22.067Z,24.48
2023-02-11T13:03:17.364Z,25.20
2023-02-11T13:05:51.501Z,25.70
2023-02-11T13:08:38.710Z,24.17
2023-02-11T13:11:16.194Z,24.45
2023-02-11T13:13:45.307Z,25.30
2023-02-11T13:16:45.257Z,24.52
2023-02-11T13:19:21.281Z,24.08
2023-02-11T13:22:03.155Z,23.90
2023-02-11T13:24:51.619Z,24.65
2023-02-11T13:27:26.992Z,25.17
2023-02-11T13:30:27.125Z,24.00
2023-02-11T13:32:56.796Z,22.95
2023-02-11T13:35:33.628Z,24.83
2023-02-11T13:38:03.324Z,24.52
2023-02-11T13:40:38.347Z,22.85
2023-02-11T13:43:07.404Z,23.07
2023-02-11T13:45:48.584Z,23.08
2023-02-11T13:48:27.075Z,24.83
2023-02-11T13:50:56.736Z,24.83
2023-02-11T13:53:24.040Z,26.92
2023-02-11T13:56:04.096Z,26.05
2023-02-11T13:58:30.413Z,28.98
2023-02-11T14:00:58.327Z,26.50
2023-02-11T14:03:45.399Z,40.47
2023-02-11T14:06:33.137Z,34.25
2023-02-11T14:09:14.531Z,31.60
2023-02-11T14:11:43.309Z,26.83
2023-02-11T14:14:14.992Z,27.05
2023-02-11T14:17:02.364Z,25.02
2023-02-11T14:19:45.939Z,22.10
2023-02-11T14:22:17.202Z,23.77
2023-02-11T14:24:53.956Z,23.42
2023-02-11T14:27:34.751Z,23.35
2023-02-11T14:30:10.991Z,22.85
2023-02-11T14:32:40.848Z,24.58
2023-02-11T14:35:32.953Z,21.60
2023-02-11T14:38:16.693Z,22.00
2023-02-11T14:41:00.714Z,23.13
2023-02-11T14:43:38.442Z,23.13
2023-02-11T14:46:05.399Z,21.10
2023-02-11T14:48:37.384Z,20.85
2023-02-11T14:51:12.475Z,20.85
2023-02-11T14:53:44.185Z,22.73
2023-02-11T14:56:26.461Z,21.55
2023-02-11T14:58:55.025Z,21.88
2023-02-11T15:01:33.935Z,22.30
2023-02-11T15:04:02.645Z,19.88
2023-02-11T15:06:49.639Z,20.33
2023-02-11T15:09:25.446Z,20.90
2023-02-11T15:11:52.573Z,19.25
2023-02-11T15:14:24.664Z,19.40
2023-02-11T15:16:53.597Z,21.13
2023-02-11T15:19:26.698Z,19.45
2023-02-11T15:21:53.850Z,19.02
2023-02-11T15:24:27.857Z,18.45
2023-02-11T15:27:01.862Z,19.55
2023-02-11T15:29:36.285Z,19.08
2023-02-11T15:32:10.192Z,18.70
2023-02-11T15:34:37.148Z,19.00
2023-02-11T15:37:04.396Z,19.55
2023-02-11T15:39:34.811Z,18.13
2023-02-11T15:42:19.730Z,18.88
2023-02-11T15:44:54.308Z,18.77
2023-02-11T15:47:23.066Z,18.73
2023-02-11T15:49:49.622Z,19.20
2023-02-11T15:52:25.535Z,18.63
2023-02-11T15:57:21.934Z,16.98
2023-02-11T15:59:52.278Z,17.95
2023-02-11T16:02:22.299Z,18.77
2023-02-11T16:04:55.155Z,17.85
2023-02-11T16:07:41.965Z,18.60
2023-02-11T16:13:18.605Z,17.27
2023-02-11T16:15:49.441Z,18.13
2023-02-11T16:19:03.196Z,17.65
2023-02-11T16:21:38.835Z,16.58
2023-02-11T16:24:08.191Z,18.13
2023-02-11T16:26:39.313Z,19.70
2023-02-11T16:29:11.488Z,18.05
2023-02-11T16:31:41.108Z,17.23
2023-02-11T16:34:25.180Z,18.70
2023-02-11T16:36:52.525Z,17.70
2023-02-11T16:39:23.774Z,19.27
2023-02-11T16:41:52.172Z,18.23
2023-02-11T16:44:18.972Z,18.13
2023-02-11T16:46:45.802Z,18.15
2023-02-11T16:49:35.732Z,18.77
2023-02-11T16:52:06.755Z,17.75
2023-02-11T16:54:33.854Z,19.08
2023-02-11T16:57:00.965Z,19.13
2023-02-11T16:59:27.333Z,18.23
2023-02-11T17:01:54.512Z,18.98
2023-02-11T17:04:25.300Z,18.60
2023-02-11T17:06:51.914Z,21.33
2023-02-11T17:09:23.697Z,23.17
2023-02-11T17:11:50.619Z,20.65
2023-02-11T17:14:17.509Z,18.90
2023-02-11T17:16:45.270Z,19.48
2023-02-11T17:19:13.557Z,19.48
2023-02-11T17:21:47.486Z,19.50
2023-02-11T17:24:15.243Z,20.45
2023-02-11T17:26:42.805Z,20.20
2023-02-11T17:29:12.011Z,21.70
2023-02-11T17:31:39.243Z,23.05
2023-02-11T17:34:06.022Z,21.23
2023-02-11T17:36:33.290Z,19.67
2023-02-11T17:39:05.283Z,21.95
2023-02-11T17:41:34.613Z,22.85
2023-02-11T17:44:01.173Z,19.83
2023-02-11T17:46:30.352Z,18.70
2023-02-11T17:48:58.917Z,19.58
2023-02-11T17:51:27.040Z,19.00
2023-02-11T17:53:54.284Z,19.73
2023-02-11T17:56:21.253Z,19.00
2023-02-11T17:58:47.790Z,18.65
2023-02-11T18:01:14.236Z,18.45
2023-02-11T18:03:40.736Z,19.33
2023-02-11T18:06:07.662Z,19.13
2023-02-11T18:08:34.912Z,19.45
2023-02-11T18:11:01.645Z,18.67
2023-02-11T18:13:28.651Z,22.42
2023-02-11T18:15:55.947Z,35.65
2023-02-11T18:18:22.380Z,91.10
2023-02-11T18:20:59.297Z,94.25
2023-02-11T18:23:26.581Z,61.75
2023-02-11T18:25:53.380Z,47.83
2023-02-11T18:28:20.043Z,35.00
2023-02-11T18:30:46.542Z,30.85
2023-02-11T18:33:14.334Z,25.58
2023-02-11T18:35:41.958Z,22.30
2023-02-11T18:38:09.356Z,24.40
2023-02-11T18:40:39.557Z,29.80
2023-02-11T18:43:06.126Z,39.63
2023-02-11T18:45:32.687Z,29.00
2023-02-11T18:48:01.778Z,23.95
2023-02-11T18:50:28.118Z,22.25
2023-02-11T18:52:54.505Z,20.75
2023-02-11T18:58:16.456Z,19.77
2023-02-11T19:00:46.762Z,18.92
2023-02-11T19:03:13.526Z,19.17
2023-02-11T19:05:48.042Z,17.83
2023-02-11T19:08:15.396Z,18.63
2023-02-11T19:10:44.477Z,18.77
2023-02-11T19:13:11.600Z,19.80
2023-02-11T19:15:45.135Z,20.15
2023-02-11T19:18:14.469Z,21.67
2023-02-11T19:20:44.887Z,20.50
2023-02-11T19:23:11.451Z,19.38
2023-02-11T19:25:44.318Z,20.08
2023-02-11T19:28:10.765Z,20.00
2023-02-11T19:30:37.196Z,20.50
2023-02-11T19:33:03.694Z,19.83
2023-02-11T19:35:30.114Z,19.10
2023-02-11T19:37:56.461Z,19.05
2023-02-11T19:40:22.979Z,21.25
2023-02-11T19:42:49.320Z,21.80
2023-02-11T19:45:15.827Z,22.60
2023-02-11T19:47:42.390Z,23.85
2023-02-11T19:50:09.147Z,21.13
2023-02-11T19:52:38.164Z,22.42
2023-02-11T19:55:04.977Z,23.42
2023-02-11T19:57:31.332Z,23.65
2023-02-11T19:59:57.768Z,21.50
2023-02-11T20:02:24.357Z,19.83
2023-02-11T20:04:50.750Z,19.73
2023-02-11T20:07:17.357Z,18.45
2023-02-11T20:09:43.807Z,18.38
2023-02-11T20:12:11.897Z,17.40
2023-02-11T20:14:38.395Z,19.17
2023-02-11T20:17:04.953Z,17.30
2023-02-11T20:19:31.416Z,16.48
2023-02-11T20:21:57.854Z,16.45
2023-02-11T20:24:25.257Z,15.07
2023-02-11T20:26:55.317Z,15.25
2023-02-11T20:29:22.742Z,14.85
2023-02-11T20:31:50.247Z,13.80
2023-02-11T20:34:17.601Z,15.05
2023-02-11T20:36:51.295Z,19.75
2023-02-11T20:39:18.656Z,13.52
2023-02-11T20:41:45.973Z,11.00
2023-02-11T20:44:12.597Z,9.60
2023-02-11T20:46:42.764Z,9.20
2023-02-11T20:49:12.098Z,8.25
2023-02-11T20:51:39.155Z,6.55
2023-02-11T20:54:06.592Z,5.57
2023-02-11T20:56:36.478Z,5.90
2023-02-11T20:59:04.020Z,5.35
2023-02-11T21:01:33.184Z,5.30
2023-02-11T21:04:03.849Z,5.25
2023-02-11T21:06:42.101Z,5.03
2023-02-11T21:09:11.108Z,4.47
2023-02-11T21:11:37.518Z,5.18
2023-02-11T21:14:04.544Z,4.93
2023-02-11T21:16:31.663Z,4.78
2023-02-11T21:18:58.058Z,4.60
2023-02-11T21:21:24.668Z,4.20
2023-02-11T21:23:51.020Z,4.05
2023-02-11T21:26:17.765Z,4.22
2023-02-11T21:28:44.446Z,4.15
2023-02-11T21:31:26.528Z,5.78
2023-02-11T21:33:56.838Z,4.30
2023-02-11T21:36:23.927Z,8.85
2023-02-11T21:38:50.470Z,9.00
2023-02-11T21:41:18.106Z,11.30
2023-02-11T21:43:44.797Z,7.15
2023-02-11T21:46:14.334Z,5.80
2023-02-11T21:48:41.021Z,5.13
2023-02-11T21:51:13.427Z,4.90
2023-02-11T21:53:39.839Z,4.20
2023-02-11T21:56:11.622Z,4.20
2023-02-11T21:58:38.751Z,4.35
2023-02-11T22:01:20.312Z,4.78
2023-02-11T22:03:47.202Z,5.15
2023-02-11T22:06:16.471Z,4.88
2023-02-11T22:08:43.100Z,4.82
2023-02-11T22:11:12.014Z,8.25
2023-02-11T22:13:38.808Z,8.15
2023-02-11T22:16:07.899Z,7.88
2023-02-11T22:18:34.429Z,7.45
2023-02-11T22:21:04.173Z,8.18
2023-02-11T22:23:31.324Z,9.07
2023-02-11T22:25:58.517Z,9.55
2023-02-11T22:28:25.844Z,11.32
2023-02-11T22:30:54.168Z,11.55
2023-02-11T22:33:20.816Z,11.50
2023-02-11T22:35:47.167Z,12.13
2023-02-11T22:38:13.510Z,11.75
2023-02-11T22:40:43.432Z,12.63
2023-02-11T22:43:10.124Z,12.20
2023-02-11T22:45:36.551Z,13.73
2023-02-11T22:48:03.500Z,13.55
2023-02-11T22:50:30.051Z,14.40
2023-02-11T22:52:56.449Z,14.60
2023-02-11T22:55:22.904Z,14.55
2023-02-11T22:57:49.218Z,13.98
2023-02-11T23:00:16.087Z,13.57
2023-02-11T23:02:42.622Z,15.18
2023-02-11T23:05:09.094Z,15.63
2023-02-11T23:07:35.471Z,15.00
2023-02-11T23:10:01.858Z,13.50
2023-02-11T23:12:28.259Z,13.05
2023-02-11T23:14:54.589Z,13.15
2023-02-11T23:17:21.014Z,12.48
2023-02-11T23:19:47.467Z,15.40
2023-02-11T23:22:13.849Z,14.57
2023-02-11T23:24:40.175Z,16.35
2023-02-11T23:27:06.719Z,13.10
2023-02-11T23:29:33.098Z,12.05
2023-02-11T23:31:59.582Z,11.95
2023-02-11T23:34:26.197Z,12.32
2023-02-11T23:36:52.964Z,12.73
2023-02-11T23:39:19.403Z,12.52
2023-02-11T23:41:46.256Z,12.50
2023-02-11T23:44:12.797Z,13.15
2023-02-11T23:46:39.196Z,11.98
2023-02-11T23:49:05.568Z,14.20
2023-02-11T23:51:32.023Z,13.07
2023-02-11T23:53:58.380Z,13.60
2023-02-11T23:56:26.942Z,12.80
2023-02-11T23:58:56.158Z,13.27
